CheckWX is a tool to help pilots better visualize weather data.  It is not intended as a substitute for an official pre-flight weather briefing.

23:01:50 UTC

KCKZ METAR
Pennridge Airport
Perkasie, Pennsylvania, USA
Current

27 mins ago

KCKZ 112235Z AUTO 28008G15KT 250V310 10SM SCT050 BKN065 29/20 A2968 RMK AO2
Observed
Jul-11 @ 22:35 UTC
Wind
  • 280° at 8 KTS
  • Gusting to 15 KTS
Visibility
10 SM
Flight Rules
VFR
Cloud Levels
  • Scattered at 5,000' AGL
  • Broken at 6,500' AGL
Temperature
29°C / 84°F
Dewpoint
20°C / 68°F
Humidity
58%
Altimeter
29.68" Hg
Pressure
1005.12 hPa
Previous

47 mins ago

KCKZ 112215Z AUTO 26006KT 10SM FEW046 SCT055 SCT100 28/20 A2968 RMK AO2
Observed
Jul-11 @ 22:15 UTC
Wind
  • 260° at 6 KTS
Visibility
10 SM
Flight Rules
VFR
Cloud Levels
  • Few at 4,600' AGL
  • Scattered at 5,500' AGL
  • Scattered at 10,000' AGL
Temperature
28°C / 82°F
Dewpoint
20°C / 68°F
Humidity
62%
Altimeter
29.68" Hg
Pressure
1005.12 hPa
Previous

1 hour ago

KCKZ 112155Z AUTO 26006KT 230V290 10SM FEW046 SCT100 29/20 A2967 RMK AO2
Observed
Jul-11 @ 21:55 UTC
Wind
  • 260° at 6 KTS
Visibility
10 SM
Flight Rules
VFR
Cloud Levels
  • Few at 4,600' AGL
  • Scattered at 10,000' AGL
Temperature
29°C / 84°F
Dewpoint
20°C / 68°F
Humidity
58%
Altimeter
29.67" Hg
Pressure
1004.72 hPa